createdAt,value
2023-11-22T00:01:27.225Z,100.00
2023-11-22T00:03:55.368Z,100.00
2023-11-22T00:06:22.949Z,100.00
2023-11-22T00:08:50.439Z,100.00
2023-11-22T00:11:17.900Z,100.00
2023-11-22T00:13:45.529Z,100.00
2023-11-22T00:16:13.009Z,100.00
2023-11-22T00:18:40.660Z,100.00
2023-11-22T00:21:08.421Z,100.00
2023-11-22T00:23:35.923Z,100.00
2023-11-22T00:26:03.410Z,100.00
2023-11-22T00:28:30.835Z,100.00
2023-11-22T00:30:59.093Z,100.00
2023-11-22T00:33:26.564Z,100.00
2023-11-22T00:35:58.590Z,100.00
2023-11-22T00:38:26.139Z,100.00
2023-11-22T00:40:53.562Z,100.00
2023-11-22T00:43:21.612Z,100.00
2023-11-22T00:45:49.040Z,100.00
2023-11-22T00:48:16.583Z,100.00
2023-11-22T00:50:44.699Z,100.00
2023-11-22T00:53:12.176Z,100.00
2023-11-22T00:55:39.553Z,100.00
2023-11-22T00:58:07.156Z,100.00
2023-11-22T01:00:34.669Z,100.00
2023-11-22T01:03:02.230Z,100.00
2023-11-22T01:05:30.511Z,100.00
2023-11-22T01:07:58.099Z,100.00
2023-11-22T01:10:25.625Z,100.00
2023-11-22T01:12:54.321Z,100.00
2023-11-22T01:15:22.667Z,100.00
2023-11-22T01:17:50.071Z,100.00
2023-11-22T01:20:17.692Z,100.00
2023-11-22T01:22:45.124Z,100.00
2023-11-22T01:25:12.529Z,100.00
2023-11-22T01:27:40.138Z,100.00
2023-11-22T01:30:10.879Z,100.00
2023-11-22T01:32:38.494Z,100.00
2023-11-22T01:35:07.303Z,100.00
2023-11-22T01:37:34.932Z,100.00
2023-11-22T01:40:04.303Z,100.00
2023-11-22T01:42:31.918Z,100.00
2023-11-22T01:44:59.547Z,100.00
2023-11-22T01:47:28.236Z,100.00
2023-11-22T01:49:55.837Z,100.00
2023-11-22T01:52:23.420Z,100.00
2023-11-22T01:54:50.999Z,100.00
2023-11-22T01:57:18.583Z,100.00
2023-11-22T01:59:47.100Z,100.00
2023-11-22T02:02:15.387Z,100.00
2023-11-22T02:04:42.974Z,100.00
2023-11-22T02:07:10.817Z,100.00
2023-11-22T02:09:38.392Z,100.00
2023-11-22T02:12:06.238Z,100.00
2023-11-22T02:14:34.205Z,100.00
2023-11-22T02:17:01.863Z,100.00
2023-11-22T02:19:31.461Z,100.00
2023-11-22T02:21:59.511Z,100.00
2023-11-22T02:24:27.954Z,100.00
2023-11-22T02:26:55.375Z,100.00
2023-11-22T02:29:22.919Z,100.00
2023-11-22T02:31:50.613Z,100.00
2023-11-22T02:34:18.144Z,100.00
2023-11-22T02:36:51.613Z,100.00
2023-11-22T02:39:38.548Z,100.00
2023-11-22T02:42:05.979Z,100.00
2023-11-22T02:44:33.460Z,100.00
2023-11-22T02:47:00.930Z,100.00
2023-11-22T02:49:28.245Z,100.00
2023-11-22T02:51:55.734Z,100.00
2023-11-22T02:54:23.292Z,100.00
2023-11-22T02:56:50.710Z,100.00
2023-11-22T02:59:18.084Z,100.00
2023-11-22T03:01:47.012Z,100.00
2023-11-22T03:04:15.247Z,100.00
2023-11-22T03:06:42.692Z,100.00
2023-11-22T03:09:10.166Z,100.00
2023-11-22T03:11:38.019Z,100.00
2023-11-22T03:14:05.589Z,100.00
2023-11-22T03:16:34.414Z,100.00
2023-11-22T03:19:03.122Z,100.00
2023-11-22T03:21:30.754Z,100.00
2023-11-22T03:23:59.234Z,100.00
2023-11-22T03:26:26.717Z,100.00
2023-11-22T03:28:54.177Z,100.00
2023-11-22T03:31:22.466Z,100.00
2023-11-22T03:33:50.011Z,100.00
2023-11-22T03:36:17.591Z,100.00
2023-11-22T03:38:44.983Z,100.00
2023-11-22T03:41:14.281Z,100.00
2023-11-22T03:43:41.844Z,100.00
2023-11-22T03:46:09.362Z,100.00
2023-11-22T03:48:36.862Z,100.00
2023-11-22T03:51:04.779Z,100.00
2023-11-22T03:53:33.280Z,100.00
2023-11-22T03:56:01.132Z,100.00
2023-11-22T03:58:28.745Z,100.00
2023-11-22T04:00:56.366Z,100.00
2023-11-22T04:03:24.191Z,100.00
2023-11-22T04:05:52.402Z,100.00
2023-11-22T04:08:19.845Z,100.00
2023-11-22T04:10:48.704Z,100.00
2023-11-22T04:13:16.141Z,100.00
2023-11-22T04:15:44.141Z,100.00
2023-11-22T04:18:12.197Z,100.00
2023-11-22T04:20:41.160Z,100.00
2023-11-22T04:23:12.035Z,100.00
2023-11-22T04:25:40.362Z,100.00
2023-11-22T04:28:09.943Z,100.00
2023-11-22T04:30:37.645Z,100.00
2023-11-22T04:33:05.206Z,100.00
2023-11-22T04:35:37.352Z,100.00
2023-11-22T04:38:04.926Z,100.00
2023-11-22T04:40:32.377Z,100.00
2023-11-22T04:42:59.819Z,100.00
2023-11-22T04:45:27.255Z,100.00
2023-11-22T04:47:54.804Z,100.00
2023-11-22T04:50:22.291Z,100.00
2023-11-22T04:52:49.678Z,100.00
2023-11-22T04:55:17.568Z,100.00
2023-11-22T04:57:45.252Z,100.00
2023-11-22T05:00:13.401Z,100.00
2023-11-22T05:02:41.255Z,100.00
2023-11-22T05:05:11.923Z,100.00
2023-11-22T05:07:40.104Z,100.00
2023-11-22T05:10:10.859Z,100.00
2023-11-22T05:12:39.087Z,100.00
2023-11-22T05:15:09.459Z,100.00
2023-11-22T05:17:37.180Z,100.00
2023-11-22T05:20:06.404Z,100.00
2023-11-22T05:22:33.842Z,100.00
2023-11-22T05:25:01.083Z,100.00
2023-11-22T05:27:29.823Z,100.00
2023-11-22T05:29:57.223Z,100.00
2023-11-22T05:32:24.663Z,100.00
2023-11-22T05:34:52.140Z,100.00
2023-11-22T05:37:19.934Z,100.00
2023-11-22T05:39:47.361Z,100.00
2023-11-22T05:42:14.696Z,100.00
2023-11-22T05:44:42.220Z,100.00
2023-11-22T05:47:09.589Z,100.00
2023-11-22T05:49:37.013Z,100.00
2023-11-22T05:52:05.702Z,100.00
2023-11-22T05:54:38.034Z,100.00
2023-11-22T05:57:05.738Z,100.00
2023-11-22T05:59:33.393Z,100.00
2023-11-22T06:02:00.799Z,100.00
2023-11-22T06:04:28.289Z,100.00
2023-11-22T06:06:55.764Z,100.00
2023-11-22T06:09:24.221Z,100.00
2023-11-22T06:11:51.733Z,100.00
2023-11-22T06:14:20.618Z,100.00
2023-11-22T06:16:48.252Z,100.00
2023-11-22T06:19:15.807Z,100.00
2023-11-22T06:21:43.180Z,100.00
2023-11-22T06:24:12.284Z,100.00
2023-11-22T06:26:41.183Z,100.00
2023-11-22T06:29:09.695Z,100.00
2023-11-22T06:31:37.170Z,100.00
2023-11-22T06:34:04.536Z,100.00
2023-11-22T06:36:32.027Z,100.00
2023-11-22T06:39:02.720Z,100.00
2023-11-22T06:41:30.285Z,100.00
2023-11-22T06:43:57.776Z,100.00
2023-11-22T06:46:25.097Z,100.00
2023-11-22T06:49:11.964Z,100.00
2023-11-22T06:51:39.284Z,100.00
2023-11-22T06:54:07.821Z,100.00
2023-11-22T06:56:35.213Z,100.00
2023-11-22T06:59:04.411Z,100.00
2023-11-22T07:01:31.988Z,100.00
2023-11-22T07:04:00.419Z,100.00
2023-11-22T07:06:28.807Z,100.00
2023-11-22T07:08:56.170Z,100.00
2023-11-22T07:11:24.564Z,100.00
2023-11-22T07:13:53.417Z,100.00
2023-11-22T07:16:22.435Z,100.00
2023-11-22T07:18:49.780Z,100.00
2023-11-22T07:21:18.075Z,100.00
2023-11-22T07:23:46.520Z,100.00
2023-11-22T07:26:17.271Z,100.00
2023-11-22T07:28:44.646Z,100.00
2023-11-22T07:31:12.665Z,100.00
2023-11-22T07:33:40.077Z,100.00
2023-11-22T07:36:07.706Z,100.00
2023-11-22T07:38:42.704Z,100.00
2023-11-22T07:41:11.200Z,100.00
2023-11-22T07:43:38.709Z,100.00
2023-11-22T07:46:14.507Z,100.00
2023-11-22T07:48:48.319Z,100.00
2023-11-22T07:51:19.327Z,100.00
2023-11-22T07:53:46.826Z,100.00
2023-11-22T07:56:16.279Z,100.00
2023-11-22T07:58:43.878Z,100.00
2023-11-22T08:01:14.629Z,100.00
2023-11-22T08:03:47.738Z,100.00
2023-11-22T08:06:17.298Z,100.00
2023-11-22T08:08:47.046Z,100.00
2023-11-22T08:11:18.817Z,100.00
2023-11-22T08:13:46.811Z,100.00
2023-11-22T08:16:14.689Z,100.00
2023-11-22T08:18:43.981Z,100.00
2023-11-22T08:21:11.541Z,100.00
2023-11-22T08:23:38.746Z,100.00
2023-11-22T08:26:07.142Z,100.00
2023-11-22T08:28:35.258Z,100.00
2023-11-22T08:31:02.591Z,100.00
2023-11-22T08:33:29.926Z,100.00
2023-11-22T08:36:00.887Z,100.00
2023-11-22T08:38:28.289Z,100.00
2023-11-22T08:41:01.303Z,100.00
2023-11-22T08:43:29.643Z,100.00
2023-11-22T08:46:08.428Z,100.00
2023-11-22T08:48:41.859Z,100.00
2023-11-22T08:51:09.394Z,100.00
2023-11-22T08:53:37.181Z,100.00
2023-11-22T08:56:07.107Z,100.00
2023-11-22T08:58:35.249Z,100.00
2023-11-22T09:01:04.992Z,100.00
2023-11-22T09:03:34.025Z,100.00
2023-11-22T09:06:01.954Z,93.22
2023-11-22T09:08:31.557Z,89.09
2023-11-22T09:10:59.332Z,90.03
2023-11-22T09:13:26.621Z,87.67
2023-11-22T09:15:54.125Z,84.55
2023-11-22T09:18:23.067Z,82.16
2023-11-22T09:20:51.516Z,80.30
2023-11-22T09:23:19.753Z,77.93
2023-11-22T09:25:47.148Z,76.30
2023-11-22T09:28:17.060Z,77.15
2023-11-22T09:30:44.631Z,73.78
2023-11-22T09:33:16.248Z,65.38
2023-11-22T09:35:48.650Z,63.70
2023-11-22T09:38:17.459Z,67.55
2023-11-22T09:40:50.121Z,64.78
2023-11-22T09:43:21.714Z,64.65
2023-11-22T09:45:53.188Z,62.27
2023-11-22T09:48:51.924Z,60.67
2023-11-22T09:51:25.428Z,63.77
2023-11-22T09:54:01.655Z,60.33
2023-11-22T09:56:34.650Z,57.81
2023-11-22T09:59:04.307Z,59.21
2023-11-22T10:01:37.618Z,57.51
2023-11-22T10:04:08.346Z,56.65
2023-11-22T10:06:36.907Z,58.45
2023-11-22T10:09:09.914Z,58.85
2023-11-22T10:11:43.040Z,55.27
2023-11-22T10:14:10.906Z,55.91
2023-11-22T10:16:38.772Z,55.48
2023-11-22T10:19:10.459Z,56.58
2023-11-22T10:21:41.195Z,55.80
2023-11-22T10:24:10.980Z,54.22
2023-11-22T10:26:41.371Z,55.35
2023-11-22T10:29:09.481Z,56.07
2023-11-22T10:31:39.334Z,54.29
2023-11-22T10:34:12.665Z,51.65
2023-11-22T10:36:40.360Z,51.05
2023-11-22T10:39:12.119Z,52.95
2023-11-22T10:41:39.903Z,54.01
2023-11-22T10:44:07.843Z,52.97
2023-11-22T10:46:41.225Z,52.02
2023-11-22T10:49:11.600Z,51.50
2023-11-22T10:51:42.482Z,49.96
2023-11-22T10:54:13.749Z,49.88
2023-11-22T10:56:43.293Z,49.89
2023-11-22T10:59:15.943Z,50.19
2023-11-22T11:05:14.777Z,49.35
2023-11-22T11:07:46.063Z,50.32
2023-11-22T11:10:20.569Z,49.17
2023-11-22T11:12:52.360Z,47.75
2023-11-22T11:15:20.331Z,49.91
2023-11-22T11:17:49.197Z,48.72
2023-11-22T11:20:18.410Z,48.11
2023-11-22T11:22:48.772Z,49.17
2023-11-22T11:25:20.246Z,48.84
2023-11-22T11:28:00.701Z,50.26
2023-11-22T11:30:33.847Z,50.58
2023-11-22T11:33:02.461Z,49.17
2023-11-22T11:35:43.803Z,50.16
2023-11-22T11:38:14.918Z,50.58
2023-11-22T11:40:43.895Z,51.35
2023-11-22T11:43:13.023Z,49.39
2023-11-22T11:45:55.169Z,50.34
2023-11-22T11:48:22.718Z,49.50
2023-11-22T11:50:53.551Z,49.95
2023-11-22T11:53:21.608Z,50.12
2023-11-22T11:56:01.159Z,50.33
2023-11-22T11:58:31.348Z,49.35
2023-11-22T12:00:59.883Z,48.53
2023-11-22T12:03:27.373Z,48.91
2023-11-22T12:05:54.757Z,48.81
2023-11-22T12:08:22.389Z,49.38
2023-11-22T12:10:50.386Z,49.10
2023-11-22T12:13:22.388Z,50.60
2023-11-22T12:15:51.118Z,49.63
2023-11-22T12:18:18.766Z,50.33
2023-11-22T12:21:00.298Z,49.97
2023-11-22T12:23:29.062Z,49.65
2023-11-22T12:26:00.070Z,50.52
2023-11-22T12:28:28.672Z,50.20
2023-11-22T12:31:07.240Z,49.73
2023-11-22T12:33:36.394Z,49.50
2023-11-22T12:36:05.082Z,48.72
2023-11-22T12:38:32.703Z,50.26
2023-11-22T12:41:00.668Z,51.60
2023-11-22T12:43:31.982Z,50.60
2023-11-22T12:46:14.542Z,50.00
2023-11-22T12:48:43.279Z,49.68
2023-11-22T12:51:18.396Z,50.55
2023-11-22T12:53:50.626Z,50.70
2023-11-22T12:57:36.104Z,50.66
2023-11-22T13:00:04.194Z,50.09
2023-11-22T13:02:32.998Z,51.91
2023-11-22T13:05:01.664Z,52.52
2023-11-22T13:07:30.242Z,49.30
2023-11-22T13:09:57.692Z,51.23
2023-11-22T13:12:25.470Z,51.99
2023-11-22T13:14:52.973Z,51.69
2023-11-22T13:17:20.395Z,51.06
2023-11-22T13:19:50.547Z,50.97
2023-11-22T13:22:18.008Z,49.53
2023-11-22T13:24:45.243Z,48.39
2023-11-22T13:27:12.646Z,47.32
2023-11-22T13:29:40.040Z,50.16
2023-11-22T13:32:09.181Z,50.16
2023-11-22T13:34:36.984Z,49.66
2023-11-22T13:37:05.829Z,49.63
2023-11-22T13:39:36.988Z,49.19
2023-11-22T13:42:04.635Z,48.45
2023-11-22T13:44:33.047Z,49.19
2023-11-22T13:47:00.449Z,48.74
2023-11-22T13:49:28.047Z,48.51
2023-11-22T13:51:57.104Z,50.96
2023-11-22T13:54:26.708Z,49.68
2023-11-22T13:56:54.356Z,49.37
2023-11-22T13:59:21.673Z,51.64
2023-11-22T14:01:50.324Z,52.89
2023-11-22T14:04:18.936Z,53.31
2023-11-22T14:06:47.033Z,52.60
2023-11-22T14:09:15.913Z,51.22
2023-11-22T14:11:43.410Z,51.08
2023-11-22T14:14:13.335Z,50.04
2023-11-22T14:16:45.788Z,50.55
2023-11-22T14:19:14.372Z,51.17
2023-11-22T14:21:41.684Z,53.17
2023-11-22T14:24:09.804Z,49.25
2023-11-22T14:26:38.237Z,53.17
2023-11-22T14:29:07.029Z,54.01
2023-11-22T14:31:34.405Z,51.96
2023-11-22T14:34:02.784Z,54.64
2023-11-22T14:36:30.928Z,57.80
2023-11-22T14:38:58.400Z,59.52
2023-11-22T14:41:25.985Z,61.79
2023-11-22T14:43:53.295Z,59.36
2023-11-22T14:46:20.881Z,63.11
2023-11-22T14:48:50.049Z,64.23
2023-11-22T14:51:17.514Z,68.30
2023-11-22T14:53:44.868Z,70.31
2023-11-22T14:56:12.437Z,73.21
2023-11-22T14:58:40.930Z,75.44
2023-11-22T15:01:10.069Z,79.30
2023-11-22T15:03:37.639Z,80.05
2023-11-22T15:06:06.180Z,83.63
2023-11-22T15:08:34.790Z,87.27
2023-11-22T15:11:02.143Z,92.07
2023-11-22T15:13:29.639Z,92.60
2023-11-22T15:15:57.743Z,95.49
2023-11-22T15:18:25.810Z,100.00
2023-11-22T15:20:53.595Z,100.00
2023-11-22T15:23:21.354Z,100.00
2023-11-22T15:25:48.871Z,100.00
2023-11-22T15:28:23.922Z,100.00
2023-11-22T15:30:59.159Z,100.00
2023-11-22T15:33:27.480Z,100.00
2023-11-22T15:35:55.135Z,100.00
2023-11-22T15:38:23.425Z,100.00
2023-11-22T15:40:50.988Z,100.00
2023-11-22T15:43:18.354Z,100.00
2023-11-22T15:45:45.655Z,100.00
2023-11-22T15:48:14.944Z,100.00
2023-11-22T15:50:42.378Z,100.00
2023-11-22T15:53:14.159Z,100.00
2023-11-22T15:55:41.675Z,100.00
2023-11-22T15:58:09.972Z,100.00
2023-11-22T16:00:37.504Z,100.00
2023-11-22T16:03:08.575Z,100.00
2023-11-22T16:05:36.030Z,100.00
2023-11-22T16:08:03.586Z,100.00
2023-11-22T16:10:30.968Z,100.00
2023-11-22T16:12:58.247Z,100.00
2023-11-22T16:15:25.711Z,100.00
2023-11-22T16:17:53.013Z,100.00
2023-11-22T16:20:22.831Z,100.00
2023-11-22T16:22:50.884Z,100.00
2023-11-22T16:25:23.812Z,100.00
2023-11-22T16:27:52.073Z,100.00
2023-11-22T16:30:19.335Z,100.00
2023-11-22T16:32:47.220Z,100.00
2023-11-22T16:35:17.318Z,100.00
2023-11-22T16:37:45.036Z,100.00
2023-11-22T16:40:13.556Z,100.00
2023-11-22T16:42:41.033Z,100.00
2023-11-22T16:45:09.050Z,100.00
2023-11-22T16:47:37.225Z,100.00
2023-11-22T16:50:06.229Z,100.00
2023-11-22T16:52:33.999Z,100.00
2023-11-22T16:55:01.813Z,100.00
2023-11-22T16:57:29.159Z,100.00
2023-11-22T16:59:56.535Z,100.00
2023-11-22T17:02:23.980Z,100.00
2023-11-22T17:04:51.389Z,100.00
2023-11-22T17:07:18.744Z,100.00
2023-11-22T17:09:46.102Z,100.00
2023-11-22T17:12:13.580Z,100.00
2023-11-22T17:14:40.840Z,100.00
2023-11-22T17:17:08.360Z,100.00
2023-11-22T17:19:35.700Z,100.00
2023-11-22T17:22:03.326Z,100.00
2023-11-22T17:24:30.787Z,100.00
2023-11-22T17:26:58.071Z,100.00
2023-11-22T17:29:25.822Z,100.00
2023-11-22T17:31:53.312Z,100.00
2023-11-22T17:34:21.977Z,100.00
2023-11-22T17:40:17.498Z,100.00
2023-11-22T17:42:45.865Z,100.00
2023-11-22T17:45:16.237Z,100.00
2023-11-22T17:47:44.869Z,100.00
2023-11-22T17:50:12.537Z,100.00
2023-11-22T17:52:39.822Z,100.00
2023-11-22T17:55:07.220Z,100.00
2023-11-22T17:57:34.523Z,100.00
2023-11-22T18:00:02.057Z,100.00
2023-11-22T18:02:29.592Z,100.00
2023-11-22T18:04:58.040Z,100.00
2023-11-22T18:07:25.427Z,100.00
2023-11-22T18:09:53.982Z,100.00
2023-11-22T18:12:21.302Z,100.00
2023-11-22T18:14:48.692Z,100.00
2023-11-22T18:17:17.518Z,100.00
2023-11-22T18:19:45.884Z,100.00
2023-11-22T18:22:28.202Z,100.00
2023-11-22T18:24:55.715Z,100.00
2023-11-22T18:27:23.241Z,100.00
2023-11-22T18:29:50.615Z,100.00
2023-11-22T18:32:18.139Z,100.00
2023-11-22T18:34:45.614Z,100.00
2023-11-22T18:37:13.027Z,100.00
2023-11-22T18:39:40.343Z,100.00
2023-11-22T18:42:07.946Z,100.00
2023-11-22T18:44:39.843Z,100.00
2023-11-22T18:47:09.047Z,100.00
2023-11-22T18:49:37.453Z,100.00
2023-11-22T18:52:05.451Z,100.00
2023-11-22T18:54:32.998Z,100.00
2023-11-22T18:57:01.505Z,100.00
2023-11-22T18:59:28.953Z,100.00
2023-11-22T19:01:58.838Z,100.00
2023-11-22T19:04:26.555Z,100.00
2023-11-22T19:06:54.253Z,100.00
2023-11-22T19:09:21.545Z,100.00
2023-11-22T19:11:49.300Z,100.00
2023-11-22T19:14:16.733Z,100.00
2023-11-22T19:16:45.444Z,100.00
2023-11-22T19:19:17.431Z,100.00
2023-11-22T19:21:44.871Z,100.00
2023-11-22T19:24:12.283Z,100.00
2023-11-22T19:26:39.851Z,100.00
2023-11-22T19:29:11.160Z,100.00
2023-11-22T19:31:38.580Z,100.00
2023-11-22T19:34:05.959Z,100.00
2023-11-22T19:36:33.399Z,100.00
2023-11-22T19:39:00.679Z,100.00
2023-11-22T19:41:28.595Z,100.00
2023-11-22T19:43:57.448Z,100.00
2023-11-22T19:46:24.956Z,100.00
2023-11-22T19:48:52.354Z,100.00
2023-11-22T19:51:20.689Z,100.00
2023-11-22T19:53:48.104Z,100.00
2023-11-22T19:56:15.507Z,100.00
2023-11-22T19:58:43.146Z,100.00
2023-11-22T20:01:10.513Z,100.00
2023-11-22T20:03:38.874Z,100.00
2023-11-22T20:06:06.393Z,100.00
2023-11-22T20:08:33.824Z,100.00
2023-11-22T20:11:01.249Z,100.00
2023-11-22T20:13:28.606Z,100.00
2023-11-22T20:15:55.981Z,100.00
2023-11-22T20:18:23.486Z,100.00
2023-11-22T20:20:51.073Z,100.00
2023-11-22T20:23:20.276Z,100.00
2023-11-22T20:25:47.725Z,100.00
2023-11-22T20:28:15.162Z,100.00
2023-11-22T20:30:42.571Z,100.00
2023-11-22T20:33:10.160Z,100.00
2023-11-22T20:35:37.596Z,100.00
2023-11-22T20:38:04.916Z,100.00
2023-11-22T20:40:32.624Z,100.00
2023-11-22T20:43:00.336Z,100.00
2023-11-22T20:45:27.647Z,100.00
2023-11-22T20:47:55.320Z,100.00
2023-11-22T20:50:26.662Z,100.00
2023-11-22T20:52:54.160Z,100.00
2023-11-22T20:55:21.439Z,100.00
2023-11-22T20:57:49.127Z,100.00
2023-11-22T21:00:18.116Z,100.00
2023-11-22T21:02:45.706Z,100.00
2023-11-22T21:05:13.236Z,100.00
2023-11-22T21:07:40.943Z,100.00
2023-11-22T21:10:08.805Z,100.00
2023-11-22T21:12:36.122Z,100.00
2023-11-22T21:15:03.869Z,100.00
2023-11-22T21:17:40.867Z,100.00
2023-11-22T21:20:11.201Z,100.00
2023-11-22T21:22:39.040Z,100.00
2023-11-22T21:25:09.465Z,100.00
2023-11-22T21:27:37.042Z,100.00
2023-11-22T21:30:04.598Z,100.00
2023-11-22T21:32:31.973Z,100.00
2023-11-22T21:34:59.180Z,100.00
2023-11-22T21:37:27.460Z,100.00
2023-11-22T21:39:54.638Z,100.00
2023-11-22T21:42:21.795Z,100.00
2023-11-22T21:44:49.114Z,100.00
2023-11-22T21:47:16.351Z,100.00
2023-11-22T21:49:43.939Z,100.00
2023-11-22T21:52:12.338Z,100.00
2023-11-22T21:54:39.569Z,100.00
2023-11-22T21:57:06.791Z,100.00
2023-11-22T21:59:35.212Z,100.00
2023-11-22T22:02:02.836Z,100.00
2023-11-22T22:04:30.081Z,100.00
2023-11-22T22:06:57.332Z,100.00
2023-11-22T22:09:24.545Z,100.00
2023-11-22T22:11:51.782Z,100.00
2023-11-22T22:14:19.087Z,100.00
2023-11-22T22:16:47.837Z,100.00
2023-11-22T22:19:15.142Z,100.00
2023-11-22T22:21:42.414Z,100.00
2023-11-22T22:24:10.278Z,100.00
2023-11-22T22:26:37.638Z,100.00
2023-11-22T22:29:05.290Z,100.00
2023-11-22T22:31:32.722Z,100.00
2023-11-22T22:34:00.046Z,100.00
2023-11-22T22:36:27.517Z,100.00
2023-11-22T22:38:55.064Z,100.00
2023-11-22T22:41:23.912Z,100.00
2023-11-22T22:43:51.286Z,100.00
2023-11-22T22:46:19.658Z,100.00
2023-11-22T22:48:47.480Z,100.00
2023-11-22T22:51:18.556Z,100.00
2023-11-22T22:53:49.804Z,100.00
2023-11-22T22:56:20.629Z,100.00
2023-11-22T22:58:49.676Z,100.00
2023-11-22T23:01:17.346Z,100.00
2023-11-22T23:03:45.509Z,100.00
2023-11-22T23:06:26.700Z,100.00
2023-11-22T23:08:54.823Z,100.00
2023-11-22T23:11:23.356Z,100.00
2023-11-22T23:13:51.632Z,100.00
2023-11-22T23:16:19.029Z,100.00
2023-11-22T23:18:47.898Z,100.00
2023-11-22T23:21:18.001Z,100.00
2023-11-22T23:23:46.430Z,100.00
2023-11-22T23:26:14.029Z,100.00
2023-11-22T23:28:41.383Z,100.00
2023-11-22T23:31:08.813Z,100.00
2023-11-22T23:33:38.486Z,100.00
2023-11-22T23:36:09.568Z,100.00
2023-11-22T23:38:37.643Z,100.00
2023-11-22T23:41:05.445Z,100.00
2023-11-22T23:43:37.309Z,100.00
2023-11-22T23:46:05.245Z,100.00
2023-11-22T23:48:35.131Z,100.00
2023-11-22T23:51:02.847Z,100.00
2023-11-22T23:53:30.241Z,100.00
2023-11-22T23:55:57.664Z,100.00
2023-11-22T23:58:25.120Z,100.00
